sensor_id;sensor_type;location;lat;lon;timestamp;P1;durP1;ratioP1;P2;durP2;ratioP2
69841;SDS011;57138;51.326;-0.068;2023-05-21T00:02:15;5.57;;;2.00;;
69841;SDS011;57138;51.326;-0.068;2023-05-21T00:04:42;6.15;;;1.88;;
69841;SDS011;57138;51.326;-0.068;2023-05-21T00:07:08;6.90;;;2.30;;
69841;SDS011;57138;51.326;-0.068;2023-05-21T00:09:34;5.38;;;1.98;;
69841;SDS011;57138;51.326;-0.068;2023-05-21T00:12:02;10.23;;;2.60;;
69841;SDS011;57138;51.326;-0.068;2023-05-21T00:14:31;6.15;;;1.92;;
69841;SDS011;57138;51.326;-0.068;2023-05-21T00:16:57;8.45;;;2.83;;
69841;SDS011;57138;51.326;-0.068;2023-05-21T00:19:23;10.52;;;2.13;;
69841;SDS011;57138;51.326;-0.068;2023-05-21T00:21:49;10.35;;;2.00;;
69841;SDS011;57138;51.326;-0.068;2023-05-21T00:24:14;10.80;;;2.63;;
69841;SDS011;57138;51.326;-0.068;2023-05-21T00:26:40;6.07;;;2.13;;
69841;SDS011;57138;51.326;-0.068;2023-05-21T00:29:06;7.75;;;2.95;;
69841;SDS011;57138;51.326;-0.068;2023-05-21T00:31:31;7.25;;;2.70;;
69841;SDS011;57138;51.326;-0.068;2023-05-21T00:33:57;12.05;;;3.85;;
69841;SDS011;57138;51.326;-0.068;2023-05-21T00:36:22;8.63;;;2.65;;
69841;SDS011;57138;51.326;-0.068;2023-05-21T00:38:49;9.93;;;2.95;;
69841;SDS011;57138;51.326;-0.068;2023-05-21T00:41:16;7.70;;;2.20;;
69841;SDS011;57138;51.326;-0.068;2023-05-21T00:43:42;6.50;;;2.67;;
69841;SDS011;57138;51.326;-0.068;2023-05-21T00:46:16;5.70;;;1.80;;
69841;SDS011;57138;51.326;-0.068;2023-05-21T00:48:43;7.93;;;2.47;;
69841;SDS011;57138;51.326;-0.068;2023-05-21T00:51:10;13.57;;;2.72;;
69841;SDS011;57138;51.326;-0.068;2023-05-21T00:53:36;13.57;;;3.03;;
69841;SDS011;57138;51.326;-0.068;2023-05-21T00:56:02;5.57;;;2.17;;
69841;SDS011;57138;51.326;-0.068;2023-05-21T00:58:29;8.18;;;2.58;;
69841;SDS011;57138;51.326;-0.068;2023-05-21T01:00:57;10.82;;;2.53;;
69841;SDS011;57138;51.326;-0.068;2023-05-21T01:03:27;5.95;;;2.35;;
69841;SDS011;57138;51.326;-0.068;2023-05-21T01:06:02;8.35;;;2.42;;
69841;SDS011;57138;51.326;-0.068;2023-05-21T01:08:29;10.25;;;2.95;;
69841;SDS011;57138;51.326;-0.068;2023-05-21T01:10:54;10.55;;;3.33;;
69841;SDS011;57138;51.326;-0.068;2023-05-21T01:13:21;10.40;;;2.70;;
69841;SDS011;57138;51.326;-0.068;2023-05-21T01:15:48;9.90;;;3.08;;
69841;SDS011;57138;51.326;-0.068;2023-05-21T01:18:14;12.20;;;3.10;;
69841;SDS011;57138;51.326;-0.068;2023-05-21T01:20:40;14.15;;;3.30;;
69841;SDS011;57138;51.326;-0.068;2023-05-21T01:23:06;9.52;;;2.75;;
69841;SDS011;57138;51.326;-0.068;2023-05-21T01:25:33;13.90;;;2.85;;
69841;SDS011;57138;51.326;-0.068;2023-05-21T01:27:59;8.57;;;2.83;;
69841;SDS011;57138;51.326;-0.068;2023-05-21T01:30:24;10.15;;;3.03;;
69841;SDS011;57138;51.326;-0.068;2023-05-21T01:35:40;24.45;;;3.78;;
69841;SDS011;57138;51.326;-0.068;2023-05-21T01:40:54;7.70;;;2.75;;
69841;SDS011;57138;51.326;-0.068;2023-05-21T01:43:27;10.40;;;3.45;;
69841;SDS011;57138;51.326;-0.068;2023-05-21T01:45:55;14.38;;;3.10;;
69841;SDS011;57138;51.326;-0.068;2023-05-21T01:48:23;14.32;;;4.47;;
69841;SDS011;57138;51.326;-0.068;2023-05-21T01:50:51;12.35;;;3.15;;
69841;SDS011;57138;51.326;-0.068;2023-05-21T01:53:19;10.45;;;3.47;;
69841;SDS011;57138;51.326;-0.068;2023-05-21T01:55:44;9.82;;;3.30;;
69841;SDS011;57138;51.326;-0.068;2023-05-21T01:58:11;9.57;;;3.58;;
69841;SDS011;57138;51.326;-0.068;2023-05-21T02:00:36;13.15;;;3.33;;
69841;SDS011;57138;51.326;-0.068;2023-05-21T02:03:03;12.88;;;4.25;;
69841;SDS011;57138;51.326;-0.068;2023-05-21T02:05:29;11.38;;;3.83;;
69841;SDS011;57138;51.326;-0.068;2023-05-21T02:07:55;14.88;;;3.70;;
69841;SDS011;57138;51.326;-0.068;2023-05-21T02:10:21;12.15;;;3.58;;
69841;SDS011;57138;51.326;-0.068;2023-05-21T02:12:46;11.50;;;3.50;;
69841;SDS011;57138;51.326;-0.068;2023-05-21T02:15:12;16.85;;;4.85;;
69841;SDS011;57138;51.326;-0.068;2023-05-21T02:17:42;20.38;;;4.43;;
69841;SDS011;57138;51.326;-0.068;2023-05-21T02:20:08;12.88;;;3.80;;
69841;SDS011;57138;51.326;-0.068;2023-05-21T02:22:41;13.02;;;3.75;;
69841;SDS011;57138;51.326;-0.068;2023-05-21T02:25:10;10.63;;;3.70;;
69841;SDS011;57138;51.326;-0.068;2023-05-21T02:27:37;13.35;;;4.07;;
69841;SDS011;57138;51.326;-0.068;2023-05-21T02:30:04;10.10;;;3.97;;
69841;SDS011;57138;51.326;-0.068;2023-05-21T02:32:32;11.77;;;4.05;;
69841;SDS011;57138;51.326;-0.068;2023-05-21T02:34:59;9.85;;;4.25;;
69841;SDS011;57138;51.326;-0.068;2023-05-21T02:37:25;13.45;;;4.35;;
69841;SDS011;57138;51.326;-0.068;2023-05-21T02:39:51;16.83;;;4.60;;
69841;SDS011;57138;51.326;-0.068;2023-05-21T02:42:17;18.02;;;4.72;;
69841;SDS011;57138;51.326;-0.068;2023-05-21T02:44:43;16.30;;;5.50;;
69841;SDS011;57138;51.326;-0.068;2023-05-21T02:47:08;13.63;;;4.80;;
69841;SDS011;57138;51.326;-0.068;2023-05-21T02:49:34;13.13;;;4.85;;
69841;SDS011;57138;51.326;-0.068;2023-05-21T02:51:59;15.15;;;5.85;;
69841;SDS011;57138;51.326;-0.068;2023-05-21T02:54:25;18.83;;;7.15;;
69841;SDS011;57138;51.326;-0.068;2023-05-21T02:56:50;14.90;;;4.95;;
69841;SDS011;57138;51.326;-0.068;2023-05-21T02:59:16;14.27;;;5.32;;
69841;SDS011;57138;51.326;-0.068;2023-05-21T03:01:41;16.23;;;6.18;;
69841;SDS011;57138;51.326;-0.068;2023-05-21T03:04:08;16.20;;;4.88;;
69841;SDS011;57138;51.326;-0.068;2023-05-21T03:06:34;22.23;;;6.15;;
69841;SDS011;57138;51.326;-0.068;2023-05-21T03:09:01;14.98;;;4.93;;
69841;SDS011;57138;51.326;-0.068;2023-05-21T03:11:26;16.45;;;5.85;;
69841;SDS011;57138;51.326;-0.068;2023-05-21T03:13:52;16.67;;;6.95;;
69841;SDS011;57138;51.326;-0.068;2023-05-21T03:16:17;8.70;;;5.30;;
69841;SDS011;57138;51.326;-0.068;2023-05-21T03:18:42;14.55;;;5.63;;
69841;SDS011;57138;51.326;-0.068;2023-05-21T03:21:08;16.30;;;5.90;;
69841;SDS011;57138;51.326;-0.068;2023-05-21T03:23:37;11.48;;;5.68;;
69841;SDS011;57138;51.326;-0.068;2023-05-21T03:26:02;14.45;;;6.30;;
69841;SDS011;57138;51.326;-0.068;2023-05-21T03:28:28;15.88;;;6.30;;
69841;SDS011;57138;51.326;-0.068;2023-05-21T03:30:54;14.68;;;5.38;;
69841;SDS011;57138;51.326;-0.068;2023-05-21T03:33:20;15.15;;;7.05;;
69841;SDS011;57138;51.326;-0.068;2023-05-21T03:35:46;18.13;;;5.57;;
69841;SDS011;57138;51.326;-0.068;2023-05-21T03:38:11;18.52;;;6.30;;
69841;SDS011;57138;51.326;-0.068;2023-05-21T03:40:37;17.02;;;6.43;;
69841;SDS011;57138;51.326;-0.068;2023-05-21T03:43:02;19.35;;;7.25;;
69841;SDS011;57138;51.326;-0.068;2023-05-21T03:45:28;17.88;;;6.78;;
69841;SDS011;57138;51.326;-0.068;2023-05-21T03:47:53;18.30;;;6.30;;
69841;SDS011;57138;51.326;-0.068;2023-05-21T03:50:18;19.08;;;7.22;;
69841;SDS011;57138;51.326;-0.068;2023-05-21T03:52:44;16.88;;;6.75;;
69841;SDS011;57138;51.326;-0.068;2023-05-21T03:55:09;16.42;;;5.85;;
69841;SDS011;57138;51.326;-0.068;2023-05-21T03:57:35;18.10;;;6.43;;
69841;SDS011;57138;51.326;-0.068;2023-05-21T04:00:01;17.85;;;6.50;;
69841;SDS011;57138;51.326;-0.068;2023-05-21T04:02:28;20.90;;;7.07;;
69841;SDS011;57138;51.326;-0.068;2023-05-21T04:04:53;18.02;;;7.18;;
69841;SDS011;57138;51.326;-0.068;2023-05-21T04:07:19;19.08;;;8.05;;
69841;SDS011;57138;51.326;-0.068;2023-05-21T04:09:45;18.52;;;7.35;;
69841;SDS011;57138;51.326;-0.068;2023-05-21T04:12:11;19.23;;;7.47;;
69841;SDS011;57138;51.326;-0.068;2023-05-21T04:14:36;15.88;;;7.60;;
69841;SDS011;57138;51.326;-0.068;2023-05-21T04:17:02;23.02;;;7.78;;
69841;SDS011;57138;51.326;-0.068;2023-05-21T04:19:30;20.25;;;7.90;;
69841;SDS011;57138;51.326;-0.068;2023-05-21T04:21:56;18.88;;;8.10;;
69841;SDS011;57138;51.326;-0.068;2023-05-21T04:24:22;19.30;;;7.85;;
69841;SDS011;57138;51.326;-0.068;2023-05-21T04:26:48;19.90;;;8.30;;
69841;SDS011;57138;51.326;-0.068;2023-05-21T04:29:14;19.58;;;8.10;;
69841;SDS011;57138;51.326;-0.068;2023-05-21T04:31:45;20.80;;;8.13;;
69841;SDS011;57138;51.326;-0.068;2023-05-21T04:34:14;23.17;;;7.45;;
69841;SDS011;57138;51.326;-0.068;2023-05-21T04:36:42;13.57;;;7.38;;
69841;SDS011;57138;51.326;-0.068;2023-05-21T04:39:10;24.40;;;8.60;;
69841;SDS011;57138;51.326;-0.068;2023-05-21T04:41:41;19.60;;;7.72;;
69841;SDS011;57138;51.326;-0.068;2023-05-21T04:44:07;17.67;;;8.23;;
69841;SDS011;57138;51.326;-0.068;2023-05-21T04:46:32;17.20;;;8.27;;
69841;SDS011;57138;51.326;-0.068;2023-05-21T04:48:59;22.20;;;8.25;;
69841;SDS011;57138;51.326;-0.068;2023-05-21T04:51:27;25.48;;;8.40;;
69841;SDS011;57138;51.326;-0.068;2023-05-21T04:53:52;25.70;;;8.80;;
69841;SDS011;57138;51.326;-0.068;2023-05-21T04:56:18;20.55;;;8.18;;
69841;SDS011;57138;51.326;-0.068;2023-05-21T04:58:44;16.85;;;8.23;;
69841;SDS011;57138;51.326;-0.068;2023-05-21T05:01:10;18.60;;;8.25;;
69841;SDS011;57138;51.326;-0.068;2023-05-21T05:03:36;16.98;;;7.35;;
69841;SDS011;57138;51.326;-0.068;2023-05-21T05:06:02;16.95;;;7.30;;
69841;SDS011;57138;51.326;-0.068;2023-05-21T05:08:28;16.90;;;6.95;;
69841;SDS011;57138;51.326;-0.068;2023-05-21T05:10:54;20.30;;;7.90;;
69841;SDS011;57138;51.326;-0.068;2023-05-21T05:13:19;18.55;;;7.47;;
69841;SDS011;57138;51.326;-0.068;2023-05-21T05:15:45;20.20;;;8.77;;
69841;SDS011;57138;51.326;-0.068;2023-05-21T05:18:10;23.70;;;8.30;;
69841;SDS011;57138;51.326;-0.068;2023-05-21T05:20:36;17.42;;;7.80;;
69841;SDS011;57138;51.326;-0.068;2023-05-21T05:23:01;21.80;;;8.10;;
69841;SDS011;57138;51.326;-0.068;2023-05-21T05:25:27;22.33;;;8.18;;
69841;SDS011;57138;51.326;-0.068;2023-05-21T05:27:52;19.23;;;10.10;;
69841;SDS011;57138;51.326;-0.068;2023-05-21T05:30:18;18.40;;;7.65;;
69841;SDS011;57138;51.326;-0.068;2023-05-21T05:32:44;18.45;;;7.20;;
69841;SDS011;57138;51.326;-0.068;2023-05-21T05:35:10;19.02;;;6.95;;
69841;SDS011;57138;51.326;-0.068;2023-05-21T05:37:36;18.02;;;7.00;;
69841;SDS011;57138;51.326;-0.068;2023-05-21T05:40:02;19.80;;;6.78;;
69841;SDS011;57138;51.326;-0.068;2023-05-21T05:42:28;14.55;;;6.85;;
69841;SDS011;57138;51.326;-0.068;2023-05-21T05:44:53;19.90;;;7.57;;
69841;SDS011;57138;51.326;-0.068;2023-05-21T05:47:19;18.00;;;7.07;;
69841;SDS011;57138;51.326;-0.068;2023-05-21T05:49:45;22.63;;;7.40;;
69841;SDS011;57138;51.326;-0.068;2023-05-21T05:52:11;29.85;;;9.30;;
69841;SDS011;57138;51.326;-0.068;2023-05-21T05:54:37;18.70;;;6.95;;
69841;SDS011;57138;51.326;-0.068;2023-05-21T05:57:02;37.58;;;7.90;;
69841;SDS011;57138;51.326;-0.068;2023-05-21T05:59:28;21.77;;;6.65;;
69841;SDS011;57138;51.326;-0.068;2023-05-21T06:01:53;15.48;;;5.25;;
69841;SDS011;57138;51.326;-0.068;2023-05-21T06:04:18;21.55;;;7.47;;
69841;SDS011;57138;51.326;-0.068;2023-05-21T06:06:44;19.85;;;6.30;;
69841;SDS011;57138;51.326;-0.068;2023-05-21T06:09:10;12.70;;;5.55;;
69841;SDS011;57138;51.326;-0.068;2023-05-21T06:11:35;17.13;;;5.53;;
69841;SDS011;57138;51.326;-0.068;2023-05-21T06:14:01;17.88;;;5.75;;
69841;SDS011;57138;51.326;-0.068;2023-05-21T06:16:27;18.33;;;6.95;;
69841;SDS011;57138;51.326;-0.068;2023-05-21T06:18:55;9.57;;;4.95;;
69841;SDS011;57138;51.326;-0.068;2023-05-21T06:21:21;16.92;;;7.85;;
69841;SDS011;57138;51.326;-0.068;2023-05-21T06:23:46;14.63;;;5.90;;
69841;SDS011;57138;51.326;-0.068;2023-05-21T06:26:11;14.63;;;5.80;;
69841;SDS011;57138;51.326;-0.068;2023-05-21T06:28:37;21.23;;;5.70;;
69841;SDS011;57138;51.326;-0.068;2023-05-21T06:31:02;18.90;;;5.68;;
69841;SDS011;57138;51.326;-0.068;2023-05-21T06:33:28;15.82;;;6.47;;
69841;SDS011;57138;51.326;-0.068;2023-05-21T06:35:54;16.55;;;5.82;;
69841;SDS011;57138;51.326;-0.068;2023-05-21T06:38:20;15.82;;;4.75;;
69841;SDS011;57138;51.326;-0.068;2023-05-21T06:40:45;14.52;;;6.07;;
69841;SDS011;57138;51.326;-0.068;2023-05-21T06:43:12;16.42;;;7.00;;
69841;SDS011;57138;51.326;-0.068;2023-05-21T06:45:38;11.10;;;5.50;;
69841;SDS011;57138;51.326;-0.068;2023-05-21T06:48:03;10.95;;;4.60;;
69841;SDS011;57138;51.326;-0.068;2023-05-21T06:50:29;13.25;;;5.43;;
69841;SDS011;57138;51.326;-0.068;2023-05-21T06:52:54;18.27;;;5.90;;
69841;SDS011;57138;51.326;-0.068;2023-05-21T06:55:20;13.35;;;5.20;;
69841;SDS011;57138;51.326;-0.068;2023-05-21T06:57:45;14.93;;;5.07;;
69841;SDS011;57138;51.326;-0.068;2023-05-21T07:00:11;12.13;;;4.20;;
69841;SDS011;57138;51.326;-0.068;2023-05-21T07:02:38;15.13;;;5.85;;
69841;SDS011;57138;51.326;-0.068;2023-05-21T07:05:03;12.90;;;4.28;;
69841;SDS011;57138;51.326;-0.068;2023-05-21T07:07:28;15.20;;;4.45;;
69841;SDS011;57138;51.326;-0.068;2023-05-21T07:09:54;17.27;;;5.05;;
69841;SDS011;57138;51.326;-0.068;2023-05-21T07:12:19;12.63;;;4.40;;
69841;SDS011;57138;51.326;-0.068;2023-05-21T07:14:44;13.43;;;4.75;;
69841;SDS011;57138;51.326;-0.068;2023-05-21T07:17:10;7.38;;;3.90;;
69841;SDS011;57138;51.326;-0.068;2023-05-21T07:19:35;13.13;;;4.05;;
69841;SDS011;57138;51.326;-0.068;2023-05-21T07:22:02;9.65;;;3.95;;
69841;SDS011;57138;51.326;-0.068;2023-05-21T07:24:28;9.68;;;3.38;;
69841;SDS011;57138;51.326;-0.068;2023-05-21T07:26:53;9.38;;;3.30;;
69841;SDS011;57138;51.326;-0.068;2023-05-21T07:29:19;11.57;;;3.33;;
69841;SDS011;57138;51.326;-0.068;2023-05-21T07:31:45;13.90;;;3.70;;
69841;SDS011;57138;51.326;-0.068;2023-05-21T07:34:10;11.73;;;4.00;;
69841;SDS011;57138;51.326;-0.068;2023-05-21T07:36:36;8.32;;;3.50;;
69841;SDS011;57138;51.326;-0.068;2023-05-21T07:39:01;9.77;;;3.97;;
69841;SDS011;57138;51.326;-0.068;2023-05-21T07:41:27;11.93;;;3.22;;
69841;SDS011;57138;51.326;-0.068;2023-05-21T07:43:52;11.65;;;3.80;;
69841;SDS011;57138;51.326;-0.068;2023-05-21T07:46:18;7.95;;;2.53;;
69841;SDS011;57138;51.326;-0.068;2023-05-21T07:48:43;10.93;;;2.88;;
69841;SDS011;57138;51.326;-0.068;2023-05-21T07:51:09;9.02;;;3.38;;
69841;SDS011;57138;51.326;-0.068;2023-05-21T07:53:35;10.02;;;3.90;;
69841;SDS011;57138;51.326;-0.068;2023-05-21T07:56:00;10.95;;;3.35;;
69841;SDS011;57138;51.326;-0.068;2023-05-21T07:58:26;8.18;;;2.80;;
69841;SDS011;57138;51.326;-0.068;2023-05-21T08:00:51;15.30;;;3.28;;
69841;SDS011;57138;51.326;-0.068;2023-05-21T08:03:18;12.07;;;3.00;;
69841;SDS011;57138;51.326;-0.068;2023-05-21T08:05:44;9.05;;;3.05;;
69841;SDS011;57138;51.326;-0.068;2023-05-21T08:08:16;9.65;;;2.60;;
69841;SDS011;57138;51.326;-0.068;2023-05-21T08:10:43;9.73;;;2.60;;
69841;SDS011;57138;51.326;-0.068;2023-05-21T08:13:10;9.15;;;2.40;;
69841;SDS011;57138;51.326;-0.068;2023-05-21T08:15:36;8.48;;;2.30;;
69841;SDS011;57138;51.326;-0.068;2023-05-21T08:18:02;8.35;;;2.72;;
69841;SDS011;57138;51.326;-0.068;2023-05-21T08:20:27;13.63;;;2.60;;
69841;SDS011;57138;51.326;-0.068;2023-05-21T08:22:55;6.13;;;2.28;;
69841;SDS011;57138;51.326;-0.068;2023-05-21T08:25:20;8.63;;;2.40;;
69841;SDS011;57138;51.326;-0.068;2023-05-21T08:27:46;6.90;;;2.38;;
69841;SDS011;57138;51.326;-0.068;2023-05-21T08:30:11;7.82;;;2.78;;
69841;SDS011;57138;51.326;-0.068;2023-05-21T08:32:37;4.82;;;1.63;;
69841;SDS011;57138;51.326;-0.068;2023-05-21T08:35:03;6.72;;;2.10;;
69841;SDS011;57138;51.326;-0.068;2023-05-21T08:37:28;7.15;;;2.15;;
69841;SDS011;57138;51.326;-0.068;2023-05-21T08:39:54;8.15;;;2.38;;
69841;SDS011;57138;51.326;-0.068;2023-05-21T08:45:17;7.00;;;2.40;;
69841;SDS011;57138;51.326;-0.068;2023-05-21T08:47:45;11.15;;;2.13;;
69841;SDS011;57138;51.326;-0.068;2023-05-21T08:50:15;5.80;;;1.85;;
69841;SDS011;57138;51.326;-0.068;2023-05-21T08:52:43;5.63;;;2.08;;
69841;SDS011;57138;51.326;-0.068;2023-05-21T08:55:09;5.13;;;1.70;;
69841;SDS011;57138;51.326;-0.068;2023-05-21T08:57:35;5.95;;;2.75;;
69841;SDS011;57138;51.326;-0.068;2023-05-21T09:00:02;11.38;;;2.67;;
69841;SDS011;57138;51.326;-0.068;2023-05-21T09:02:31;7.60;;;1.80;;
69841;SDS011;57138;51.326;-0.068;2023-05-21T09:04:58;5.72;;;1.70;;
69841;SDS011;57138;51.326;-0.068;2023-05-21T09:07:27;5.85;;;1.88;;
69841;SDS011;57138;51.326;-0.068;2023-05-21T09:09:54;6.72;;;2.53;;
69841;SDS011;57138;51.326;-0.068;2023-05-21T09:12:22;4.65;;;2.10;;
69841;SDS011;57138;51.326;-0.068;2023-05-21T09:14:48;4.10;;;1.55;;
69841;SDS011;57138;51.326;-0.068;2023-05-21T09:17:13;6.82;;;2.00;;
69841;SDS011;57138;51.326;-0.068;2023-05-21T09:22:41;4.05;;;1.58;;
69841;SDS011;57138;51.326;-0.068;2023-05-21T09:25:11;5.80;;;1.55;;
69841;SDS011;57138;51.326;-0.068;2023-05-21T09:27:41;7.50;;;1.58;;
69841;SDS011;57138;51.326;-0.068;2023-05-21T09:30:10;6.88;;;1.50;;
69841;SDS011;57138;51.326;-0.068;2023-05-21T09:32:37;7.82;;;2.00;;
69841;SDS011;57138;51.326;-0.068;2023-05-21T09:35:08;6.07;;;1.65;;
69841;SDS011;57138;51.326;-0.068;2023-05-21T09:37:41;4.97;;;2.03;;
69841;SDS011;57138;51.326;-0.068;2023-05-21T09:42:47;5.68;;;1.60;;
69841;SDS011;57138;51.326;-0.068;2023-05-21T09:45:24;6.25;;;1.75;;
69841;SDS011;57138;51.326;-0.068;2023-05-21T09:47:50;7.00;;;2.03;;
69841;SDS011;57138;51.326;-0.068;2023-05-21T09:50:24;10.80;;;1.83;;
69841;SDS011;57138;51.326;-0.068;2023-05-21T09:52:51;6.32;;;1.70;;
69841;SDS011;57138;51.326;-0.068;2023-05-21T09:55:22;8.30;;;1.70;;
69841;SDS011;57138;51.326;-0.068;2023-05-21T09:57:50;4.72;;;1.90;;
69841;SDS011;57138;51.326;-0.068;2023-05-21T10:00:23;4.60;;;1.67;;
69841;SDS011;57138;51.326;-0.068;2023-05-21T10:02:55;7.35;;;1.80;;
69841;SDS011;57138;51.326;-0.068;2023-05-21T10:05:25;4.78;;;1.98;;
69841;SDS011;57138;51.326;-0.068;2023-05-21T10:07:54;10.98;;;1.70;;
69841;SDS011;57138;51.326;-0.068;2023-05-21T10:10:24;8.38;;;1.80;;
69841;SDS011;57138;51.326;-0.068;2023-05-21T10:13:03;6.57;;;1.67;;
69841;SDS011;57138;51.326;-0.068;2023-05-21T10:15:31;5.10;;;1.70;;
69841;SDS011;57138;51.326;-0.068;2023-05-21T10:18:02;5.22;;;1.67;;
69841;SDS011;57138;51.326;-0.068;2023-05-21T10:20:27;7.38;;;1.73;;
69841;SDS011;57138;51.326;-0.068;2023-05-21T10:22:53;7.30;;;1.70;;
69841;SDS011;57138;51.326;-0.068;2023-05-21T10:25:19;7.20;;;1.70;;
69841;SDS011;57138;51.326;-0.068;2023-05-21T10:27:47;10.70;;;2.83;;
69841;SDS011;57138;51.326;-0.068;2023-05-21T10:30:13;3.72;;;1.67;;
69841;SDS011;57138;51.326;-0.068;2023-05-21T10:32:39;4.75;;;2.00;;
69841;SDS011;57138;51.326;-0.068;2023-05-21T10:35:06;5.95;;;2.00;;
69841;SDS011;57138;51.326;-0.068;2023-05-21T10:37:33;5.07;;;1.80;;
69841;SDS011;57138;51.326;-0.068;2023-05-21T10:39:59;9.27;;;2.00;;
69841;SDS011;57138;51.326;-0.068;2023-05-21T10:48:12;6.93;;;1.90;;
69841;SDS011;57138;51.326;-0.068;2023-05-21T11:01:31;6.07;;;1.90;;
69841;SDS011;57138;51.326;-0.068;2023-05-21T11:03:59;4.18;;;1.58;;
69841;SDS011;57138;51.326;-0.068;2023-05-21T11:06:25;10.75;;;2.78;;
69841;SDS011;57138;51.326;-0.068;2023-05-21T11:08:51;5.75;;;2.20;;
69841;SDS011;57138;51.326;-0.068;2023-05-21T11:14:25;5.65;;;2.00;;
69841;SDS011;57138;51.326;-0.068;2023-05-21T11:19:39;4.35;;;1.70;;
69841;SDS011;57138;51.326;-0.068;2023-05-21T11:22:09;5.22;;;1.67;;
69841;SDS011;57138;51.326;-0.068;2023-05-21T11:24:43;4.75;;;1.60;;
69841;SDS011;57138;51.326;-0.068;2023-05-21T11:27:09;8.30;;;2.35;;
69841;SDS011;57138;51.326;-0.068;2023-05-21T11:29:40;7.82;;;1.95;;
69841;SDS011;57138;51.326;-0.068;2023-05-21T11:32:07;5.28;;;2.03;;
69841;SDS011;57138;51.326;-0.068;2023-05-21T11:35:07;3.97;;;1.60;;
69841;SDS011;57138;51.326;-0.068;2023-05-21T11:37:26;4.97;;;1.85;;
69841;SDS011;57138;51.326;-0.068;2023-05-21T11:40:17;6.30;;;1.92;;
69841;SDS011;57138;51.326;-0.068;2023-05-21T11:42:48;9.40;;;2.42;;
69841;SDS011;57138;51.326;-0.068;2023-05-21T11:45:17;5.65;;;2.17;;
69841;SDS011;57138;51.326;-0.068;2023-05-21T11:47:44;7.22;;;1.92;;
69841;SDS011;57138;51.326;-0.068;2023-05-21T11:50:11;6.20;;;2.38;;
69841;SDS011;57138;51.326;-0.068;2023-05-21T11:52:38;7.63;;;2.60;;
69841;SDS011;57138;51.326;-0.068;2023-05-21T11:55:04;12.45;;;2.75;;
69841;SDS011;57138;51.326;-0.068;2023-05-21T11:57:31;6.72;;;2.30;;
69841;SDS011;57138;51.326;-0.068;2023-05-21T11:59:57;9.55;;;2.22;;
69841;SDS011;57138;51.326;-0.068;2023-05-21T12:02:29;8.85;;;2.38;;
69841;SDS011;57138;51.326;-0.068;2023-05-21T12:04:56;5.47;;;2.28;;
69841;SDS011;57138;51.326;-0.068;2023-05-21T12:07:27;11.30;;;2.97;;
69841;SDS011;57138;51.326;-0.068;2023-05-21T12:09:56;5.93;;;2.47;;
69841;SDS011;57138;51.326;-0.068;2023-05-21T12:12:24;7.20;;;2.53;;
69841;SDS011;57138;51.326;-0.068;2023-05-21T12:14:52;6.57;;;2.20;;
69841;SDS011;57138;51.326;-0.068;2023-05-21T12:17:22;6.32;;;2.40;;
69841;SDS011;57138;51.326;-0.068;2023-05-21T12:19:52;6.65;;;2.35;;
69841;SDS011;57138;51.326;-0.068;2023-05-21T12:22:19;6.25;;;2.65;;
69841;SDS011;57138;51.326;-0.068;2023-05-21T12:24:45;8.18;;;2.80;;
69841;SDS011;57138;51.326;-0.068;2023-05-21T12:27:12;5.70;;;2.08;;
69841;SDS011;57138;51.326;-0.068;2023-05-21T12:29:45;5.93;;;2.17;;
69841;SDS011;57138;51.326;-0.068;2023-05-21T12:32:13;6.93;;;2.50;;
69841;SDS011;57138;51.326;-0.068;2023-05-21T12:39:47;5.28;;;1.90;;
69841;SDS011;57138;51.326;-0.068;2023-05-21T12:42:24;7.75;;;2.83;;
69841;SDS011;57138;51.326;-0.068;2023-05-21T12:45:00;9.80;;;3.03;;
69841;SDS011;57138;51.326;-0.068;2023-05-21T12:47:32;11.10;;;2.65;;
69841;SDS011;57138;51.326;-0.068;2023-05-21T12:49:58;5.07;;;2.17;;
69841;SDS011;57138;51.326;-0.068;2023-05-21T12:52:25;6.35;;;2.10;;
69841;SDS011;57138;51.326;-0.068;2023-05-21T12:54:55;8.60;;;2.58;;
69841;SDS011;57138;51.326;-0.068;2023-05-21T12:57:34;11.30;;;2.42;;
69841;SDS011;57138;51.326;-0.068;2023-05-21T13:00:04;6.45;;;2.47;;
69841;SDS011;57138;51.326;-0.068;2023-05-21T13:02:38;6.28;;;2.50;;
69841;SDS011;57138;51.326;-0.068;2023-05-21T13:05:05;7.22;;;2.10;;
69841;SDS011;57138;51.326;-0.068;2023-05-21T13:07:35;6.22;;;2.63;;
69841;SDS011;57138;51.326;-0.068;2023-05-21T13:10:02;4.65;;;1.75;;
69841;SDS011;57138;51.326;-0.068;2023-05-21T13:12:30;6.32;;;2.58;;
69841;SDS011;57138;51.326;-0.068;2023-05-21T13:14:57;12.30;;;2.42;;
69841;SDS011;57138;51.326;-0.068;2023-05-21T13:17:24;5.13;;;2.20;;
69841;SDS011;57138;51.326;-0.068;2023-05-21T13:22:37;9.65;;;3.17;;
69841;SDS011;57138;51.326;-0.068;2023-05-21T13:25:07;8.32;;;3.58;;
69841;SDS011;57138;51.326;-0.068;2023-05-21T13:27:34;6.85;;;2.50;;
69841;SDS011;57138;51.326;-0.068;2023-05-21T13:30:00;8.40;;;2.55;;
69841;SDS011;57138;51.326;-0.068;2023-05-21T13:32:26;6.47;;;2.67;;
69841;SDS011;57138;51.326;-0.068;2023-05-21T13:34:51;9.25;;;2.75;;
69841;SDS011;57138;51.326;-0.068;2023-05-21T13:37:17;7.38;;;3.00;;
69841;SDS011;57138;51.326;-0.068;2023-05-21T13:39:47;8.02;;;3.67;;
69841;SDS011;57138;51.326;-0.068;2023-05-21T13:42:12;9.73;;;2.67;;
69841;SDS011;57138;51.326;-0.068;2023-05-21T13:44:38;9.23;;;2.83;;
69841;SDS011;57138;51.326;-0.068;2023-05-21T13:47:04;8.38;;;3.63;;
69841;SDS011;57138;51.326;-0.068;2023-05-21T13:49:32;5.47;;;2.42;;
69841;SDS011;57138;51.326;-0.068;2023-05-21T13:51:58;11.20;;;2.90;;
69841;SDS011;57138;51.326;-0.068;2023-05-21T13:54:24;10.13;;;3.47;;
69841;SDS011;57138;51.326;-0.068;2023-05-21T13:56:53;8.98;;;3.85;;
69841;SDS011;57138;51.326;-0.068;2023-05-21T13:59:20;9.77;;;3.17;;
69841;SDS011;57138;51.326;-0.068;2023-05-21T14:01:48;8.98;;;3.17;;
69841;SDS011;57138;51.326;-0.068;2023-05-21T14:04:16;6.15;;;2.53;;
69841;SDS011;57138;51.326;-0.068;2023-05-21T14:06:42;12.75;;;4.40;;
69841;SDS011;57138;51.326;-0.068;2023-05-21T14:09:08;11.02;;;3.45;;
69841;SDS011;57138;51.326;-0.068;2023-05-21T14:11:34;11.82;;;4.03;;
69841;SDS011;57138;51.326;-0.068;2023-05-21T14:14:00;7.13;;;2.60;;
69841;SDS011;57138;51.326;-0.068;2023-05-21T14:16:27;6.65;;;2.53;;
69841;SDS011;57138;51.326;-0.068;2023-05-21T14:18:53;6.70;;;2.70;;
69841;SDS011;57138;51.326;-0.068;2023-05-21T14:21:19;7.47;;;2.65;;
69841;SDS011;57138;51.326;-0.068;2023-05-21T14:23:45;7.90;;;2.70;;
69841;SDS011;57138;51.326;-0.068;2023-05-21T14:26:12;8.32;;;3.03;;
69841;SDS011;57138;51.326;-0.068;2023-05-21T14:28:37;7.97;;;3.15;;
69841;SDS011;57138;51.326;-0.068;2023-05-21T14:31:03;8.52;;;2.78;;
69841;SDS011;57138;51.326;-0.068;2023-05-21T14:33:32;7.68;;;3.53;;
69841;SDS011;57138;51.326;-0.068;2023-05-21T14:35:59;6.20;;;2.58;;
69841;SDS011;57138;51.326;-0.068;2023-05-21T14:38:25;8.80;;;2.50;;
69841;SDS011;57138;51.326;-0.068;2023-05-21T14:40:51;5.38;;;2.55;;
69841;SDS011;57138;51.326;-0.068;2023-05-21T14:43:17;7.35;;;2.80;;
69841;SDS011;57138;51.326;-0.068;2023-05-21T14:45:43;8.88;;;2.47;;
69841;SDS011;57138;51.326;-0.068;2023-05-21T14:48:09;7.30;;;2.88;;
69841;SDS011;57138;51.326;-0.068;2023-05-21T14:50:36;8.65;;;3.05;;
69841;SDS011;57138;51.326;-0.068;2023-05-21T14:53:06;7.53;;;2.88;;
69841;SDS011;57138;51.326;-0.068;2023-05-21T14:55:33;6.05;;;2.88;;
69841;SDS011;57138;51.326;-0.068;2023-05-21T14:58:01;8.05;;;2.88;;
69841;SDS011;57138;51.326;-0.068;2023-05-21T15:00:28;5.82;;;2.40;;
69841;SDS011;57138;51.326;-0.068;2023-05-21T15:02:57;8.52;;;2.88;;
69841;SDS011;57138;51.326;-0.068;2023-05-21T15:05:23;7.80;;;2.80;;
69841;SDS011;57138;51.326;-0.068;2023-05-21T15:07:49;7.97;;;3.20;;
69841;SDS011;57138;51.326;-0.068;2023-05-21T15:10:15;6.60;;;2.58;;
69841;SDS011;57138;51.326;-0.068;2023-05-21T15:12:40;7.07;;;2.70;;